Time;durP1;ratioP1;P1;durP2;ratioP2;P2;SDS_P1;SDS_P2;PMS_P1;PMS_P2;Temp;Humidity;BMP_temperature;BMP_pressure;BME280_temperature;BME280_humidity;BME280_pressure;Samples;Min_cycle;Max_cycle;Signal;HPM_P1;HPM_P2
2023/12/01 00:02:18;;;;;;;;;33.00;26.75;;;;;1.11;88.78;100474.34;5116239;27;11472;-69
2023/12/01 00:04:44;;;;;;;;;41.75;34.50;;;;;0.94;88.89;100473.25;5116552;28;11493;-68
2023/12/01 00:07:11;;;;;;;;;31.00;25.75;;;;;0.91;89.14;100478.81;5117065;28;11619;-70
2023/12/01 00:09:37;;;;;;;;;29.25;23.50;;;;;0.89;89.57;100470.19;5120570;27;11669;-69
2023/12/01 00:12:04;;;;;;;;;24.75;20.00;;;;;0.85;89.60;100473.22;5106797;28;11506;-69
2023/12/01 00:14:31;;;;;;;;;22.00;20.00;;;;;0.90;90.19;100474.50;5108675;28;11501;-70
2023/12/01 00:16:57;;;;;;;;;26.50;22.75;;;;;0.73;89.25;100473.41;5109924;28;11770;-69
2023/12/01 00:19:24;;;;;;;;;32.50;23.50;;;;;0.67;90.01;100478.41;5110023;28;11491;-69
2023/12/01 00:21:51;;;;;;;;;24.00;22.00;;;;;0.62;89.18;100475.34;5112123;27;11605;-70
2023/12/01 00:24:17;;;;;;;;;24.00;19.00;;;;;0.56;89.66;100476.72;5103753;27;12383;-70
2023/12/01 00:26:45;;;;;;;;;21.00;17.50;;;;;0.47;90.52;100482.84;5130716;27;11461;-69
2023/12/01 00:29:12;;;;;;;;;20.50;17.00;;;;;0.55;90.59;100485.66;5112554;28;11553;-68
2023/12/01 00:31:38;;;;;;;;;17.00;15.75;;;;;0.63;91.37;100483.16;5094765;27;11488;-69
2023/12/01 00:34:05;;;;;;;;;14.50;14.50;;;;;0.75;90.76;100486.50;5111470;28;11476;-69
2023/12/01 00:36:32;;;;;;;;;24.50;18.75;;;;;0.77;90.42;100487.22;5091736;28;11528;-70
2023/12/01 00:38:59;;;;;;;;;13.00;12.75;;;;;0.86;90.25;100494.31;5092717;28;11498;-67
2023/12/01 00:41:26;;;;;;;;;21.75;17.75;;;;;0.85;89.43;100490.00;5122327;27;11452;-69
2023/12/01 00:43:52;;;;;;;;;18.75;15.25;;;;;0.72;90.07;100490.25;5105084;28;12187;-68
2023/12/01 00:46:19;;;;;;;;;19.00;14.25;;;;;0.69;90.14;100487.06;5091267;27;11608;-69
2023/12/01 00:48:45;;;;;;;;;17.75;17.00;;;;;0.66;90.01;100497.94;5117478;27;11115;-70
2023/12/01 00:51:18;;;;;;;;;23.75;21.00;;;;;0.59;89.54;100508.22;5085918;27;11506;-70
2023/12/01 00:53:46;;;;;;;;;18.75;15.75;;;;;0.52;89.73;100501.81;5096526;28;11587;-69
2023/12/01 00:56:13;;;;;;;;;28.25;19.00;;;;;0.39;89.14;100504.72;5097076;27;11497;-68
2023/12/01 00:58:40;;;;;;;;;20.50;17.25;;;;;0.28;89.90;100507.47;5092618;28;11474;-70
2023/12/01 01:01:07;;;;;;;;;14.25;13.75;;;;;0.30;90.37;100507.38;5111393;28;11501;-69
2023/12/01 01:03:34;;;;;;;;;12.50;12.00;;;;;0.37;90.75;100504.03;5100429;28;11574;-69
2023/12/01 01:06:02;;;;;;;;;24.50;21.00;;;;;0.47;90.89;100507.53;5092955;27;10990;-69
2023/12/01 01:08:30;;;;;;;;;22.25;20.75;;;;;0.51;90.25;100509.91;5089395;27;11490;-67
2023/12/01 01:10:56;;;;;;;;;22.75;21.50;;;;;0.51;90.34;100510.72;5093921;28;11491;-70
2023/12/01 01:13:26;;;;;;;;;24.75;18.75;;;;;0.46;90.46;100520.91;5112258;28;11563;-70
2023/12/01 01:15:52;;;;;;;;;25.00;22.50;;;;;0.32;89.23;100518.63;5095047;28;11511;-70
2023/12/01 01:18:20;;;;;;;;;25.25;20.75;;;;;0.29;90.45;100519.78;5094527;28;12021;-69
2023/12/01 01:20:47;;;;;;;;;26.75;26.75;;;;;0.32;89.75;100513.34;5074680;28;11559;-70
2023/12/01 01:23:14;;;;;;;;;29.00;26.00;;;;;0.37;90.42;100521.75;5089748;28;12212;-69
2023/12/01 01:25:40;;;;;;;;;32.50;28.00;;;;;0.39;90.95;100517.13;5113204;28;11500;-69
2023/12/01 01:28:07;;;;;;;;;24.50;21.50;;;;;0.53;90.78;100522.03;5121031;27;11465;-69
2023/12/01 01:30:34;;;;;;;;;30.75;23.75;;;;;0.64;90.46;100526.34;5099722;27;11583;-70
2023/12/01 01:33:01;;;;;;;;;26.75;24.75;;;;;0.60;89.46;100524.97;5102947;28;11497;-69
2023/12/01 01:35:29;;;;;;;;;22.50;19.25;;;;;0.45;88.26;100520.06;5120827;27;11531;-68
2023/12/01 01:37:55;;;;;;;;;26.75;21.50;;;;;0.39;89.71;100520.59;5094251;28;11634;-70
2023/12/01 01:40:22;;;;;;;;;24.75;19.50;;;;;0.47;90.04;100525.22;5111075;27;11502;-69
2023/12/01 01:42:49;;;;;;;;;25.00;23.00;;;;;0.42;88.85;100522.16;5105732;27;12281;-71
2023/12/01 01:45:16;;;;;;;;;24.75;19.50;;;;;0.35;89.36;100536.91;5116388;27;11492;-70
2023/12/01 01:47:42;;;;;;;;;22.50;18.75;;;;;0.37;90.13;100538.47;5093826;28;11577;-66
2023/12/01 01:50:08;;;;;;;;;25.25;20.75;;;;;0.45;90.04;100549.22;5111680;28;11555;-69
2023/12/01 01:52:37;;;;;;;;;21.75;21.75;;;;;0.51;89.87;100545.16;5089228;28;11487;-70
2023/12/01 01:55:03;;;;;;;;;31.50;22.50;;;;;0.49;89.48;100547.13;5107279;28;11534;-69
2023/12/01 01:57:37;;;;;;;;;19.25;18.50;;;;;0.60;89.76;100549.63;5116894;27;11579;-70
2023/12/01 02:00:05;;;;;;;;;34.00;21.50;;;;;0.63;89.48;100548.53;5092561;27;11466;-69
2023/12/01 02:02:37;;;;;;;;;24.75;20.25;;;;;0.66;89.20;100550.91;5107902;27;11472;-69
2023/12/01 02:05:12;;;;;;;;;29.00;23.75;;;;;0.61;88.64;100547.81;5075000;28;11482;-69
2023/12/01 02:07:40;;;;;;;;;27.25;20.50;;;;;0.56;88.26;100555.34;5089767;27;11512;-68
2023/12/01 02:10:15;;;;;;;;;23.75;19.75;;;;;0.59;89.43;100555.06;5090847;27;11505;-68
2023/12/01 02:12:43;;;;;;;;;23.50;20.50;;;;;0.63;89.45;100549.38;5108688;28;11543;-69
2023/12/01 02:15:10;;;;;;;;;22.50;18.75;;;;;0.70;88.97;100552.31;5091946;28;11517;-70
2023/12/01 02:17:38;;;;;;;;;17.25;15.75;;;;;0.73;88.77;100550.22;5090260;27;11514;-69
2023/12/01 02:20:06;;;;;;;;;22.00;15.25;;;;;0.73;88.34;100546.75;5086559;28;11650;-70
2023/12/01 02:22:33;;;;;;;;;20.00;16.25;;;;;0.80;88.71;100550.50;5104005;27;11495;-70
2023/12/01 02:25:00;;;;;;;;;24.50;19.50;;;;;0.86;88.02;100554.41;5099464;28;11476;-69
2023/12/01 02:27:26;;;;;;;;;20.75;18.75;;;;;0.84;87.54;100556.34;5093882;28;11503;-70
2023/12/01 02:29:53;;;;;;;;;32.00;21.00;;;;;0.78;88.15;100556.94;5109315;28;12522;-70
2023/12/01 02:32:19;;;;;;;;;20.75;20.75;;;;;0.86;87.99;100557.91;5076178;27;11541;-68
2023/12/01 02:34:46;;;;;;;;;24.00;21.00;;;;;0.94;87.88;100560.69;5098673;28;11494;-70
2023/12/01 02:37:12;;;;;;;;;13.25;13.00;;;;;1.00;87.71;100551.34;5072353;28;11533;-70
2023/12/01 02:39:39;;;;;;;;;34.00;20.50;;;;;1.06;87.51;100556.09;5089879;28;11502;-70
2023/12/01 02:42:05;;;;;;;;;27.25;17.25;;;;;1.08;87.85;100563.91;5110759;28;12265;-68
2023/12/01 02:44:32;;;;;;;;;24.50;20.25;;;;;1.10;87.50;100564.63;5111492;28;11498;-70
2023/12/01 02:46:58;;;;;;;;;23.25;18.25;;;;;0.97;86.66;100556.91;5093063;28;11753;-70
2023/12/01 02:49:25;;;;;;;;;20.75;16.50;;;;;0.96;86.74;100555.25;5090687;27;11500;-70
2023/12/01 02:51:51;;;;;;;;;24.25;21.00;;;;;0.96;87.30;100552.59;5080084;28;11485;-70
2023/12/01 02:54:18;;;;;;;;;20.25;19.00;;;;;0.98;87.01;100556.78;5098038;27;11605;-68
2023/12/01 02:56:44;;;;;;;;;25.00;24.00;;;;;0.89;86.13;100554.13;5092270;28;11519;-70
2023/12/01 02:59:11;;;;;;;;;21.50;19.00;;;;;0.91;86.93;100560.97;5108639;27;11470;-68
2023/12/01 03:01:37;;;;;;;;;20.25;16.75;;;;;0.96;87.35;100565.84;5093012;28;11559;-70
2023/12/01 03:04:04;;;;;;;;;18.50;14.50;;;;;1.03;87.27;100566.13;5115702;27;11578;-70
2023/12/01 03:06:31;;;;;;;;;19.00;14.75;;;;;1.01;86.99;100566.25;5123031;27;11473;-69
2023/12/01 03:08:57;;;;;;;;;24.50;18.50;;;;;0.94;86.43;100568.66;5128035;27;11471;-69
2023/12/01 03:11:24;;;;;;;;;21.50;18.50;;;;;0.83;86.80;100567.94;5089033;28;11514;-69
2023/12/01 03:13:50;;;;;;;;;20.00;18.25;;;;;0.87;86.76;100566.69;5112112;28;11469;-70
2023/12/01 03:16:17;;;;;;;;;29.25;19.75;;;;;0.90;87.36;100572.56;5106744;28;11533;-70
2023/12/01 03:18:44;;;;;;;;;24.25;23.25;;;;;0.92;86.17;100565.28;5106566;28;12251;-70
2023/12/01 03:21:12;;;;;;;;;28.50;22.75;;;;;0.77;85.91;100563.19;5089132;28;11505;-70
2023/12/01 03:23:40;;;;;;;;;23.00;22.25;;;;;0.70;86.09;100568.22;5111117;28;11561;-70
2023/12/01 03:26:10;;;;;;;;;19.25;15.00;;;;;0.67;86.60;100571.94;5075863;28;12204;-70
2023/12/01 03:28:37;;;;;;;;;26.75;23.25;;;;;0.69;86.35;100561.25;5107292;28;11507;-71
2023/12/01 03:31:03;;;;;;;;;21.50;17.50;;;;;0.76;85.92;100570.28;5070860;28;12215;-69
2023/12/01 03:33:30;;;;;;;;;24.00;18.50;;;;;0.74;85.21;100573.09;5077520;28;11499;-70
2023/12/01 03:35:57;;;;;;;;;21.50;18.25;;;;;0.75;86.05;100576.56;5079787;28;11495;-69
2023/12/01 03:38:23;;;;;;;;;28.25;21.75;;;;;0.74;85.36;100574.91;5091907;28;11493;-69
2023/12/01 03:40:50;;;;;;;;;31.25;24.50;;;;;0.66;85.31;100572.09;5109694;28;11498;-70
2023/12/01 03:43:17;;;;;;;;;27.50;20.00;;;;;0.67;85.94;100573.78;5091411;28;12244;-70
2023/12/01 03:45:43;;;;;;;;;25.25;21.50;;;;;0.60;84.90;100578.75;5089974;28;11479;-69
2023/12/01 03:48:10;;;;;;;;;32.00;26.75;;;;;0.65;85.47;100581.88;5096972;28;11564;-70
2023/12/01 03:50:37;;;;;;;;;15.50;11.00;;;;;0.55;85.12;100574.88;5108003;28;11486;-70
2023/12/01 03:53:03;;;;;;;;;23.50;21.25;;;;;0.60;84.90;100585.88;5089572;28;11638;-70
2023/12/01 03:55:30;;;;;;;;;30.25;22.75;;;;;0.52;84.27;100585.72;5109611;28;11522;-69
2023/12/01 03:57:56;;;;;;;;;34.00;25.25;;;;;0.55;84.48;100588.09;5111602;27;11485;-70
2023/12/01 04:00:23;;;;;;;;;19.75;19.00;;;;;0.57;84.95;100589.66;5077217;28;12293;-69
2023/12/01 04:02:50;;;;;;;;;31.75;21.50;;;;;0.57;84.47;100587.00;5104907;28;11499;-70
2023/12/01 04:05:18;;;;;;;;;31.50;31.50;;;;;0.62;84.45;100589.25;5105889;27;11516;-69
2023/12/01 04:07:53;;;;;;;;;22.50;19.50;;;;;0.62;84.38;100594.53;5069837;28;12323;-70
2023/12/01 04:10:24;;;;;;;;;25.00;21.00;;;;;0.67;84.61;100594.97;5103355;27;11479;-68
2023/12/01 04:12:52;;;;;;;;;26.50;19.75;;;;;0.78;84.86;100602.81;5107873;27;11478;-71
2023/12/01 04:15:20;;;;;;;;;36.00;26.25;;;;;0.86;84.33;100602.13;5093059;27;12237;-69
2023/12/01 04:17:48;;;;;;;;;32.50;22.00;;;;;0.82;83.42;100604.19;5100162;28;11501;-69
2023/12/01 04:20:27;;;;;;;;;29.00;27.75;;;;;0.74;83.38;100604.03;5080803;28;11523;-70
2023/12/01 04:23:00;;;;;;;;;28.25;22.50;;;;;0.82;84.17;100606.84;5080550;28;11577;-71
2023/12/01 04:25:27;;;;;;;;;32.00;29.25;;;;;0.88;83.04;100614.22;5093239;28;11487;-70
2023/12/01 04:27:56;;;;;;;;;25.50;24.50;;;;;0.90;83.50;100606.16;5095563;28;11531;-70
2023/12/01 04:30:23;;;;;;;;;41.50;27.50;;;;;0.92;83.46;100610.34;5113267;28;11612;-69
2023/12/01 04:32:52;;;;;;;;;28.00;27.25;;;;;0.86;82.83;100610.91;5114155;28;11561;-70
2023/12/01 04:35:23;;;;;;;;;35.25;29.75;;;;;0.88;83.13;100613.41;5114077;28;11562;-70
2023/12/01 04:37:50;;;;;;;;;35.25;29.50;;;;;0.91;83.40;100621.91;5092912;28;11657;-70
2023/12/01 04:40:17;;;;;;;;;38.75;31.00;;;;;0.87;82.83;100614.38;5105744;27;11499;-70
2023/12/01 04:42:45;;;;;;;;;30.75;26.50;;;;;0.96;82.77;100622.34;5094786;28;11507;-70
2023/12/01 04:45:13;;;;;;;;;32.00;27.75;;;;;1.02;82.44;100623.63;5113752;28;11500;-70
2023/12/01 04:47:41;;;;;;;;;26.25;19.25;;;;;1.08;82.58;100619.56;5093410;28;11607;-70
2023/12/01 04:50:13;;;;;;;;;27.75;22.50;;;;;1.04;81.88;100623.47;5109390;27;11491;-69
2023/12/01 04:52:46;;;;;;;;;35.75;28.25;;;;;0.99;82.05;100626.53;5113041;28;11625;-68
2023/12/01 04:55:15;;;;;;;;;25.25;20.50;;;;;0.98;82.06;100633.66;5094522;28;11472;-69
2023/12/01 04:57:43;;;;;;;;;24.00;20.75;;;;;0.92;82.28;100630.69;5112005;28;11523;-68
2023/12/01 05:00:21;;;;;;;;;24.75;20.25;;;;;0.97;82.07;100634.63;5109270;27;11595;-66
2023/12/01 05:03:07;;;;;;;;;27.00;22.75;;;;;1.01;81.90;100640.47;5090142;28;11551;-69
2023/12/01 05:05:38;;;;;;;;;24.25;21.50;;;;;1.04;81.39;100640.19;5118792;27;11550;-69
2023/12/01 05:08:07;;;;;;;;;33.00;26.75;;;;;1.03;81.31;100641.19;5120458;27;11564;-70
2023/12/01 05:10:35;;;;;;;;;28.25;22.75;;;;;1.05;81.50;100641.03;5109272;27;11618;-71
2023/12/01 05:13:04;;;;;;;;;22.75;20.50;;;;;1.03;81.28;100643.84;5095048;28;11495;-70
2023/12/01 05:15:33;;;;;;;;;23.75;19.75;;;;;1.12;81.61;100650.13;5111520;28;11594;-70
2023/12/01 05:18:04;;;;;;;;;26.75;24.00;;;;;1.13;81.11;100657.09;5107335;28;11562;-69
2023/12/01 05:20:32;;;;;;;;;28.75;23.50;;;;;1.09;80.90;100659.16;5112033;27;11486;-70
2023/12/01 05:23:00;;;;;;;;;31.50;23.25;;;;;1.10;81.31;100649.44;5111936;28;11501;-70
2023/12/01 05:25:32;;;;;;;;;30.50;23.75;;;;;1.05;81.58;100654.28;5109730;28;11590;-70
2023/12/01 05:28:00;;;;;;;;;36.75;31.00;;;;;1.03;81.23;100658.91;5120112;27;11482;-69
2023/12/01 05:30:29;;;;;;;;;23.75;19.00;;;;;0.95;80.92;100664.88;5101731;27;11491;-70
2023/12/01 05:33:00;;;;;;;;;21.00;20.50;;;;;0.98;81.53;100673.41;5120136;27;12429;-70
2023/12/01 05:35:27;;;;;;;;;35.75;22.25;;;;;0.92;80.90;100663.34;5131560;27;11449;-71
2023/12/01 05:37:56;;;;;;;;;23.00;21.50;;;;;0.89;80.42;100668.94;5125282;27;11499;-70
2023/12/01 05:40:32;;;;;;;;;21.25;19.25;;;;;0.95;80.31;100671.03;5108814;28;10972;-69
2023/12/01 05:42:58;;;;;;;;;34.25;24.50;;;;;0.93;80.10;100669.47;5110391;28;11582;-70
2023/12/01 05:45:27;;;;;;;;;22.25;19.00;;;;;0.89;80.84;100668.94;5094912;28;12195;-69
2023/12/01 05:47:55;;;;;;;;;23.00;22.00;;;;;0.87;79.46;100668.22;5109752;22;11574;-68
2023/12/01 05:50:31;;;;;;;;;22.25;17.25;;;;;0.88;80.05;100672.53;5024594;28;11526;-68
2023/12/01 05:53:06;;;;;;;;;21.75;15.50;;;;;0.93;79.76;100672.13;5033215;28;11616;-67
2023/12/01 05:55:33;;;;;;;;;21.00;15.00;;;;;0.90;79.75;100669.75;5034351;28;11664;-68
2023/12/01 05:58:02;;;;;;;;;23.25;18.00;;;;;0.94;79.78;100674.66;5027245;28;11516;-68
2023/12/01 06:00:31;;;;;;;;;20.00;15.50;;;;;1.01;79.75;100682.88;5030590;28;11810;-68
2023/12/01 06:03:01;;;;;;;;;26.50;19.75;;;;;1.02;78.89;100684.56;5000197;28;11506;-68
2023/12/01 06:05:28;;;;;;;;;21.00;19.00;;;;;0.97;78.90;100682.34;5024247;28;11591;-68
2023/12/01 06:07:58;;;;;;;;;26.00;19.25;;;;;1.04;79.34;100693.22;5010288;28;11551;-68
2023/12/01 06:10:29;;;;;;;;;24.50;21.00;;;;;1.10;79.84;100687.38;5006161;28;12262;-68
2023/12/01 06:12:56;;;;;;;;;21.25;19.00;;;;;1.07;78.55;100686.81;5030344;28;11518;-68
2023/12/01 06:15:24;;;;;;;;;28.50;21.00;;;;;1.07;79.23;100692.13;5012246;28;11568;-68
2023/12/01 06:17:51;;;;;;;;;32.50;20.50;;;;;0.97;78.88;100686.78;5031031;28;11559;-68
2023/12/01 06:20:20;;;;;;;;;25.50;16.50;;;;;0.94;79.44;100697.66;5026577;28;12340;-67
2023/12/01 06:22:49;;;;;;;;;27.25;23.50;;;;;0.92;79.23;100694.31;5036387;28;11642;-68
2023/12/01 06:25:16;;;;;;;;;26.00;23.25;;;;;0.89;78.92;100702.50;5031506;28;11534;-67
2023/12/01 06:27:43;;;;;;;;;28.00;23.25;;;;;0.84;78.74;100699.44;5032398;28;11517;-68
2023/12/01 06:30:14;;;;;;;;;18.75;18.00;;;;;0.91;78.70;100704.06;5024975;28;11620;-67
2023/12/01 06:32:42;;;;;;;;;24.00;17.25;;;;;0.93;78.88;100706.56;5013052;28;11081;-67
2023/12/01 06:35:11;;;;;;;;;15.50;12.25;;;;;1.00;78.91;100705.06;5030857;28;11623;-67
2023/12/01 06:37:41;;;;;;;;;18.00;16.00;;;;;1.00;78.42;100702.41;5019240;28;11493;-67
2023/12/01 06:40:12;;;;;;;;;19.75;16.75;;;;;1.06;78.75;100701.88;5031124;28;11524;-67
2023/12/01 06:42:40;;;;;;;;;27.00;16.50;;;;;1.08;78.18;100699.91;5039382;28;11033;-67
2023/12/01 06:45:11;;;;;;;;;21.00;18.75;;;;;1.09;78.89;100701.59;5013299;28;11525;-67
2023/12/01 06:47:40;;;;;;;;;18.25;16.50;;;;;1.14;78.77;100701.22;5029778;28;11522;-67
2023/12/01 06:50:09;;;;;;;;;16.50;13.00;;;;;1.23;79.01;100705.69;5032017;28;11530;-67
2023/12/01 06:52:37;;;;;;;;;15.75;12.75;;;;;1.30;78.64;100701.50;5039183;28;11553;-67
2023/12/01 06:55:07;;;;;;;;;23.00;18.00;;;;;1.33;78.11;100703.03;5009908;28;11643;-67
2023/12/01 06:57:40;;;;;;;;;24.50;18.75;;;;;1.31;78.37;100713.78;5039137;28;11651;-68
2023/12/01 07:00:33;;;;;;;;;20.00;19.25;;;;;1.31;78.14;100716.44;5039410;28;11636;-67
2023/12/01 07:03:04;;;;;;;;;13.75;12.50;;;;;1.35;78.33;100720.50;5016785;28;11578;-68
2023/12/01 07:05:33;;;;;;;;;21.50;17.00;;;;;1.33;78.23;100722.41;5028177;28;11493;-67
2023/12/01 07:08:03;;;;;;;;;25.75;22.00;;;;;1.27;78.48;100723.00;5029717;28;11573;-68
2023/12/01 07:10:32;;;;;;;;;16.75;13.25;;;;;1.24;78.13;100723.25;5038261;28;11505;-67
2023/12/01 07:12:59;;;;;;;;;19.25;17.50;;;;;1.29;78.09;100733.44;5035722;28;11560;-68
2023/12/01 07:15:26;;;;;;;;;19.25;17.00;;;;;1.32;78.17;100734.00;5029537;28;11557;-68
2023/12/01 07:17:54;;;;;;;;;19.25;17.50;;;;;1.36;78.36;100727.47;5030964;28;11515;-68
2023/12/01 07:20:22;;;;;;;;;20.25;17.25;;;;;1.39;78.27;100726.34;5030229;28;11570;-67
2023/12/01 07:22:52;;;;;;;;;23.75;19.75;;;;;1.28;77.91;100727.31;5021803;28;11504;-67
2023/12/01 07:25:23;;;;;;;;;24.25;19.50;;;;;1.22;78.24;100733.16;5047385;28;11539;-67
2023/12/01 07:28:01;;;;;;;;;21.00;17.00;;;;;1.14;78.46;100730.38;5028297;28;11600;-67
2023/12/01 07:30:27;;;;;;;;;17.00;14.00;;;;;1.08;78.63;100737.03;5015254;28;11592;-67
2023/12/01 07:32:56;;;;;;;;;21.00;19.25;;;;;1.11;78.37;100747.38;5036225;28;12214;-67
2023/12/01 07:35:23;;;;;;;;;17.50;14.25;;;;;1.16;78.78;100746.97;4999156;28;11741;-67
2023/12/01 07:37:52;;;;;;;;;21.50;18.25;;;;;1.15;78.69;100751.44;5026495;28;11520;-67
2023/12/01 07:40:19;;;;;;;;;21.00;15.00;;;;;1.18;78.63;100751.16;5028681;28;11514;-67
2023/12/01 07:42:48;;;;;;;;;16.75;16.75;;;;;1.26;78.63;100750.50;5017677;28;11514;-67
2023/12/01 07:45:17;;;;;;;;;19.50;15.75;;;;;1.26;77.99;100763.75;5012225;28;11703;-68
2023/12/01 07:47:44;;;;;;;;;15.50;13.00;;;;;1.28;77.82;100751.16;5009227;28;11531;-68
2023/12/01 07:50:11;;;;;;;;;25.50;19.50;;;;;1.22;77.67;100765.00;5011950;28;11482;-68
2023/12/01 07:52:38;;;;;;;;;14.00;10.25;;;;;1.25;78.18;100759.41;5027746;28;11665;-68
2023/12/01 07:55:06;;;;;;;;;18.00;13.50;;;;;1.31;78.14;100764.16;5030014;28;11564;-68
2023/12/01 07:57:32;;;;;;;;;23.00;19.25;;;;;1.29;78.14;100763.44;5015492;28;11635;-67
2023/12/01 08:00:00;;;;;;;;;18.75;16.00;;;;;1.33;77.73;100772.81;5030466;28;11599;-68
2023/12/01 08:02:29;;;;;;;;;19.75;17.75;;;;;1.32;77.70;100775.59;5029564;28;10989;-68
2023/12/01 08:04:56;;;;;;;;;21.50;18.25;;;;;1.25;77.61;100775.31;5033587;28;11511;-68
2023/12/01 08:07:23;;;;;;;;;25.75;19.75;;;;;1.17;77.70;100775.13;5009449;28;12305;-67
2023/12/01 08:09:49;;;;;;;;;25.00;16.75;;;;;1.14;77.76;100776.28;5030038;28;11544;-68
2023/12/01 08:12:19;;;;;;;;;18.25;13.25;;;;;1.16;77.98;100784.06;5030724;28;11559;-68
2023/12/01 08:14:45;;;;;;;;;19.50;13.50;;;;;1.10;78.41;100782.81;5027473;28;11526;-67
2023/12/01 08:17:11;;;;;;;;;19.50;13.75;;;;;1.03;77.92;100786.13;5032169;28;11588;-67
2023/12/01 08:19:38;;;;;;;;;14.25;13.75;;;;;0.88;77.18;100783.81;4997405;28;11552;-67
2023/12/01 08:22:05;;;;;;;;;21.50;14.50;;;;;0.78;77.80;100793.56;5015042;28;11551;-67
2023/12/01 08:24:32;;;;;;;;;17.50;14.75;;;;;0.84;78.48;100786.88;5016533;28;11526;-68
2023/12/01 08:27:00;;;;;;;;;17.25;13.50;;;;;0.89;78.86;100784.66;5033278;28;12424;-67
2023/12/01 08:29:26;;;;;;;;;17.50;16.25;;;;;0.98;78.32;100782.06;5027190;28;11089;-68
2023/12/01 08:31:53;;;;;;;;;19.50;17.00;;;;;0.94;78.19;100783.31;5015505;28;11659;-67
2023/12/01 08:34:20;;;;;;;;;16.75;13.00;;;;;0.99;78.06;100778.44;5029013;28;11612;-67
2023/12/01 08:36:49;;;;;;;;;16.50;15.25;;;;;1.03;78.33;100778.19;5031872;28;11546;-67
2023/12/01 08:39:16;;;;;;;;;17.25;13.50;;;;;1.06;77.82;100783.22;5031630;28;11557;-67
2023/12/01 08:41:42;;;;;;;;;19.00;16.25;;;;;1.08;78.27;100782.09;5033132;28;11530;-67
2023/12/01 08:44:09;;;;;;;;;14.25;13.00;;;;;1.11;78.03;100779.19;5034625;28;11692;-67
2023/12/01 08:46:35;;;;;;;;;15.75;10.75;;;;;1.17;77.74;100791.03;5027580;28;11666;-68
2023/12/01 08:49:02;;;;;;;;;17.75;15.50;;;;;1.19;77.58;100794.41;5025260;28;11028;-67
2023/12/01 08:51:28;;;;;;;;;17.00;16.00;;;;;1.18;77.51;100790.09;5038508;28;11541;-66
2023/12/01 08:53:55;;;;;;;;;19.75;16.75;;;;;1.19;77.83;100799.72;5030827;28;11598;-67
2023/12/01 08:56:21;;;;;;;;;14.25;11.25;;;;;1.23;77.53;100803.78;5030134;28;12247;-67
2023/12/01 08:58:48;;;;;;;;;13.50;9.25;;;;;1.30;77.43;100799.63;5013598;28;12294;-67
2023/12/01 09:01:16;;;;;;;;;12.00;12.00;;;;;1.34;77.11;100790.41;5031331;28;11606;-67
2023/12/01 09:03:43;;;;;;;;;18.25;13.50;;;;;1.36;77.02;100790.28;5023985;28;11585;-67
2023/12/01 09:06:10;;;;;;;;;13.50;7.25;;;;;1.33;76.74;100799.31;5031697;28;11520;-67
2023/12/01 09:08:36;;;;;;;;;17.00;15.50;;;;;1.35;76.48;100805.34;5027399;28;11545;-67
2023/12/01 09:11:03;;;;;;;;;12.50;12.00;;;;;1.36;76.63;100804.38;5014775;28;11670;-67
2023/12/01 09:13:32;;;;;;;;;16.50;13.50;;;;;1.40;76.97;100804.94;5031773;28;11518;-67
2023/12/01 09:16:00;;;;;;;;;23.50;14.75;;;;;1.33;75.93;100807.28;5028008;28;11713;-67
2023/12/01 09:18:27;;;;;;;;;8.75;6.00;;;;;1.33;76.89;100809.09;5031590;28;11575;-67
2023/12/01 09:20:54;;;;;;;;;14.50;10.00;;;;;1.39;77.05;100814.72;5032620;28;11498;-67
2023/12/01 09:23:21;;;;;;;;;20.75;16.25;;;;;1.41;75.91;100817.22;5014765;28;11597;-67
2023/12/01 09:25:48;;;;;;;;;18.25;16.25;;;;;1.35;75.93;100815.13;5029771;28;11551;-67
2023/12/01 09:28:14;;;;;;;;;14.25;13.00;;;;;1.22;76.14;100815.38;5022720;28;11539;-67
2023/12/01 09:30:41;;;;;;;;;22.75;17.00;;;;;1.14;76.49;100816.03;5023692;28;11531;-67
2023/12/01 09:33:08;;;;;;;;;14.25;13.75;;;;;1.14;77.03;100818.69;5032511;28;11626;-67
2023/12/01 09:35:34;;;;;;;;;22.25;14.50;;;;;1.19;76.75;100820.94;5031479;28;11486;-67
2023/12/01 09:38:21;;;;;;;;;24.00;16.75;;;;;1.11;76.22;100828.72;5027289;28;11556;-66
2023/12/01 09:40:47;;;;;;;;;15.25;13.00;;;;;1.16;76.74;100829.13;5032349;28;11540;-66
2023/12/01 09:43:17;;;;;;;;;18.00;14.00;;;;;1.24;77.26;100821.34;5014658;28;11515;-67
2023/12/01 09:45:45;;;;;;;;;29.25;14.25;;;;;1.26;76.23;100830.03;5028415;28;11513;-67
2023/12/01 09:48:17;;;;;;;;;16.00;13.50;;;;;1.35;76.56;100821.25;5031485;28;11513;-67
2023/12/01 09:50:44;;;;;;;;;16.00;14.25;;;;;1.38;76.73;100825.47;5019381;28;11646;-67
2023/12/01 09:53:11;;;;;;;;;18.25;15.25;;;;;1.46;76.60;100842.38;5014036;28;11680;-67
2023/12/01 09:55:37;;;;;;;;;14.25;14.00;;;;;1.55;76.59;100834.59;5031296;28;11510;-67
2023/12/01 09:58:04;;;;;;;;;16.00;12.00;;;;;1.62;75.66;100833.91;5026729;28;11554;-67
2023/12/01 10:00:31;;;;;;;;;20.25;15.75;;;;;1.68;76.27;100836.00;5009999;28;11461;-67
2023/12/01 10:02:57;;;;;;;;;20.50;15.75;;;;;1.58;74.79;100840.47;5014155;28;11616;-67
2023/12/01 10:05:25;;;;;;;;;14.00;11.50;;;;;1.59;75.74;100850.09;5031888;28;11525;-67
2023/12/01 10:07:52;;;;;;;;;21.75;14.00;;;;;1.64;75.21;100850.50;5030823;28;11515;-67
2023/12/01 10:10:25;;;;;;;;;21.75;18.25;;;;;1.49;74.86;100841.25;5029315;28;11591;-67
2023/12/01 10:13:04;;;;;;;;;11.75;11.00;;;;;1.48;75.39;100847.53;5029489;28;11522;-67
2023/12/01 10:15:33;;;;;;;;;21.25;19.75;;;;;1.48;75.53;100843.06;5013721;28;12203;-67
2023/12/01 10:18:09;;;;;;;;;16.50;15.00;;;;;1.22;73.72;100849.84;5028372;28;11653;-67
2023/12/01 10:20:57;;;;;;;;;15.25;13.75;;;;;1.20;75.03;100849.94;5031348;28;12238;-67
2023/12/01 10:23:24;;;;;;;;;22.50;13.75;;;;;1.33;75.91;100852.38;5029925;28;12285;-66
2023/12/01 10:25:52;;;;;;;;;15.25;13.50;;;;;1.46;75.88;100852.16;5028403;28;11526;-66
2023/12/01 10:28:19;;;;;;;;;16.75;13.50;;;;;1.51;75.73;100849.94;5029734;28;12312;-67
2023/12/01 10:30:57;;;;;;;;;11.25;11.25;;;;;1.48;74.95;100844.88;5029998;28;11530;-67
2023/12/01 10:33:28;;;;;;;;;16.50;12.75;;;;;1.39;74.43;100853.66;5030451;28;11504;-67
2023/12/01 10:36:07;;;;;;;;;17.75;14.75;;;;;1.40;74.89;100855.34;5030693;28;12209;-67
2023/12/01 10:38:36;;;;;;;;;18.00;14.00;;;;;1.38;74.99;100844.03;5028340;28;12192;-67
2023/12/01 10:41:04;;;;;;;;;26.00;17.25;;;;;1.43;75.37;100853.25;5012281;28;11547;-67
2023/12/01 10:43:32;;;;;;;;;21.25;17.00;;;;;1.48;75.47;100844.88;5028715;28;11555;-67
2023/12/01 10:46:04;;;;;;;;;15.50;14.50;;;;;1.43;75.18;100844.47;5029503;28;11542;-67
2023/12/01 10:48:32;;;;;;;;;18.25;15.25;;;;;1.36;74.35;100845.97;5021092;28;11651;-67
2023/12/01 10:51:03;;;;;;;;;16.25;12.75;;;;;1.32;74.47;100839.25;5014568;28;11587;-67
2023/12/01 10:53:30;;;;;;;;;20.25;14.00;;;;;1.36;74.26;100836.19;5030770;28;11636;-67
2023/12/01 10:56:02;;;;;;;;;19.50;12.25;;;;;1.39;73.74;100841.22;5012663;28;11600;-67
2023/12/01 10:58:31;;;;;;;;;13.00;11.00;;;;;1.36;72.95;100849.44;5023712;28;12262;-67
2023/12/01 11:00:58;;;;;;;;;17.50;12.25;;;;;1.32;72.89;100847.22;5013247;28;11488;-67
2023/12/01 11:03:29;;;;;;;;;17.00;10.50;;;;;1.30;71.89;100847.34;5029941;28;12225;-67
2023/12/01 11:06:01;;;;;;;;;13.50;13.50;;;;;1.21;70.21;100848.13;5030109;28;12299;-67
2023/12/01 11:08:54;;;;;;;;;26.00;14.75;;;;;1.12;69.93;100848.94;5030399;28;11497;-67
2023/12/01 11:11:52;;;;;;;;;13.75;10.00;;;;;1.11;70.66;100850.75;5030088;28;11561;-67
2023/12/01 11:14:25;;;;;;;;;16.25;10.50;;;;;1.13;69.85;100838.19;5029781;28;11548;-67
2023/12/01 11:16:53;;;;;;;;;12.50;9.50;;;;;1.30;69.58;100835.88;5009739;28;11637;-67
2023/12/01 11:19:23;;;;;;;;;13.00;11.50;;;;;1.42;69.01;100842.78;5030443;28;11533;-68
2023/12/01 11:21:56;;;;;;;;;11.00;8.25;;;;;1.51;69.04;100830.53;5011735;28;11509;-67
2023/12/01 11:24:34;;;;;;;;;8.00;8.00;;;;;1.58;68.62;100839.59;5030653;28;11529;-66